Terminal Aerodrome Forecast
Issued by NWS

Home | Current Version | Previous Version | Text Only | Print | Product List | Glossary On
Versions: 1 2 3 4 5 6 7 8 9 10 11 12 13 14 15 16 17 18 19 20 21 22 23
000
FTUS41 KPBZ 200500
TAFDUJ
TAF
KDUJ 200531Z 2006/2106 15005KT P6SM SCT250
     FM200630 32015KT P6SM SCT040 BKN080
     FM200800 20006KT 4SM -SHRA BR BKN025 OVC040
     FM201200 20008KT P6SM VCSH SCT030 BKN080
     FM201800 22010KT P6SM VCTS BKN040CB
     FM210200 23004KT P6SM SCT040=

USA.gov is the U.S. government's official web portal to all federal, state and local government web resources and services.